createdAt,value
2019-04-01T00:01:09.494Z,38.35
2019-04-01T00:03:41.190Z,34.95
2019-04-01T00:06:12.841Z,33.33
2019-04-01T00:08:44.598Z,32.95
2019-04-01T00:11:16.284Z,41.55
2019-04-01T00:13:48.035Z,38.67
2019-04-01T00:16:19.677Z,34.00
2019-04-01T00:19:02.393Z,35.23
2019-04-01T00:21:24.590Z,34.20
2019-04-01T00:23:56.410Z,38.05
2019-04-01T00:26:27.867Z,41.13
2019-04-01T00:28:59.251Z,40.38
2019-04-01T00:31:30.872Z,38.08
2019-04-01T00:34:02.729Z,37.15
2019-04-01T00:36:34.085Z,40.67
2019-04-01T00:39:06.655Z,36.28
2019-04-01T00:41:39.642Z,40.38
2019-04-01T00:44:13.992Z,40.73
2019-04-01T00:46:45.829Z,45.80
2019-04-01T00:49:17.585Z,44.70
2019-04-01T00:51:49.444Z,45.48
2019-04-01T00:54:21.023Z,38.92
2019-04-01T00:56:52.867Z,42.93
2019-04-01T00:59:24.339Z,40.48
2019-04-01T01:01:55.960Z,39.48
2019-04-01T01:04:28.759Z,39.08
2019-04-01T01:07:00.308Z,44.15
2019-04-01T01:09:32.158Z,44.15
2019-04-01T01:12:03.632Z,44.13
2019-04-01T01:14:35.205Z,42.15
2019-04-01T01:17:06.948Z,46.37
2019-04-01T01:19:38.601Z,46.73
2019-04-01T01:22:10.363Z,45.80
2019-04-01T01:24:42.123Z,43.98
2019-04-01T01:27:13.689Z,46.35
2019-04-01T01:29:45.543Z,45.43
2019-04-01T01:32:17.103Z,47.40
2019-04-01T01:34:48.858Z,47.15
2019-04-01T01:37:20.721Z,43.65
2019-04-01T01:39:52.180Z,45.30
2019-04-01T01:42:23.817Z,44.03
2019-04-01T01:44:55.691Z,41.18
2019-04-01T01:47:27.457Z,50.30
2019-04-01T01:49:59.216Z,52.90
2019-04-01T01:52:30.768Z,46.98
2019-04-01T01:55:02.531Z,56.10
2019-04-01T01:57:34.189Z,51.85
2019-04-01T02:00:05.841Z,51.90
2019-04-01T02:02:38.629Z,51.45
2019-04-01T02:05:10.387Z,50.00
2019-04-01T02:07:41.842Z,51.45
2019-04-01T02:10:13.505Z,50.03
2019-04-01T02:12:44.849Z,54.58
2019-04-01T02:15:16.607Z,46.53
2019-04-01T02:17:48.370Z,55.35
2019-04-01T02:20:19.838Z,54.35
2019-04-01T02:22:51.479Z,47.10
2019-04-01T02:25:23.231Z,47.45
2019-04-01T02:27:54.921Z,47.78
2019-04-01T02:30:26.669Z,55.03
2019-04-01T02:32:58.422Z,54.53
2019-04-01T02:35:30.221Z,54.35
2019-04-01T02:38:01.649Z,59.50
2019-04-01T02:40:33.711Z,54.38
2019-04-01T02:43:05.156Z,56.28
2019-04-01T02:45:36.812Z,51.73
2019-04-01T02:48:08.173Z,58.75
2019-04-01T02:50:39.923Z,56.70
2019-04-01T02:53:11.781Z,58.10
2019-04-01T02:55:43.343Z,58.33
2019-04-01T02:58:15.016Z,59.65
2019-04-01T03:00:46.654Z,62.60
2019-04-01T03:03:18.253Z,62.17
2019-04-01T03:05:50.983Z,62.40
2019-04-01T03:08:22.857Z,62.98
2019-04-01T03:10:54.411Z,58.40
2019-04-01T03:13:26.098Z,60.65
2019-04-01T03:15:57.745Z,65.47
2019-04-01T03:18:29.375Z,54.77
2019-04-01T03:21:01.247Z,57.73
2019-04-01T03:23:32.800Z,56.90
2019-04-01T03:26:04.665Z,57.25
2019-04-01T03:28:36.429Z,52.75
2019-04-01T03:31:08.135Z,58.00
2019-04-01T03:33:39.938Z,58.25
2019-04-01T03:36:11.490Z,61.40
2019-04-01T03:38:43.365Z,58.30
2019-04-01T03:41:14.921Z,50.85
2019-04-01T03:43:46.572Z,55.43
2019-04-01T03:46:18.763Z,66.87
2019-04-01T03:48:50.199Z,62.62
2019-04-01T03:51:21.864Z,63.23
2019-04-01T03:53:54.540Z,67.20
2019-04-01T03:56:26.400Z,65.50
2019-04-01T03:58:58.005Z,63.30
2019-04-01T04:01:30.545Z,60.12
2019-04-01T04:04:02.089Z,53.35
2019-04-01T04:06:33.765Z,61.23
2019-04-01T04:09:06.222Z,64.85
2019-04-01T04:11:38.089Z,62.48
2019-04-01T04:14:10.875Z,74.32
2019-04-01T04:16:42.434Z,69.15
2019-04-01T04:19:15.382Z,59.58
2019-04-01T04:21:47.074Z,61.65
2019-04-01T04:24:18.724Z,99.28
2019-04-01T04:26:50.491Z,100.07
2019-04-01T04:29:22.255Z,114.50
2019-04-01T04:31:53.806Z,107.72
2019-04-01T04:34:25.375Z,107.25
2019-04-01T04:36:57.016Z,82.47
2019-04-01T04:39:28.883Z,61.30
2019-04-01T04:42:00.246Z,58.80
2019-04-01T04:44:31.989Z,58.78
2019-04-01T04:47:03.754Z,66.07
2019-04-01T04:49:35.307Z,61.65
2019-04-01T04:52:07.179Z,64.15
2019-04-01T04:54:38.625Z,63.87
2019-04-01T04:57:10.488Z,59.23
2019-04-01T04:59:42.346Z,45.73
2019-04-01T05:02:13.924Z,44.95
2019-04-01T05:04:45.669Z,45.40
2019-04-01T05:07:17.423Z,47.40
2019-04-01T05:09:48.760Z,47.83
2019-04-01T05:12:20.532Z,48.35
2019-04-01T05:14:52.090Z,46.42
2019-04-01T05:17:23.959Z,45.50
2019-04-01T05:19:55.508Z,42.67
2019-04-01T05:22:27.266Z,41.70
2019-04-01T05:24:59.132Z,49.25
2019-04-01T05:27:30.806Z,45.90
2019-04-01T05:30:03.369Z,42.33
2019-04-01T05:32:36.123Z,54.60
2019-04-01T05:35:08.022Z,49.50
2019-04-01T05:37:39.572Z,48.87
2019-04-01T05:40:11.738Z,45.83
2019-04-01T05:42:43.191Z,55.43
2019-04-01T05:45:14.703Z,58.25
2019-04-01T05:47:47.991Z,60.12
2019-04-01T05:50:19.803Z,58.65
2019-04-01T05:52:51.378Z,58.33
2019-04-01T05:55:22.920Z,69.37
2019-04-01T05:57:56.067Z,56.77
2019-04-01T06:00:32.352Z,68.17
2019-04-01T06:03:04.026Z,69.42
2019-04-01T06:05:35.843Z,71.87
2019-04-01T06:08:07.480Z,69.42
2019-04-01T06:10:38.897Z,80.35
2019-04-01T06:13:10.410Z,74.53
2019-04-01T06:15:42.214Z,89.92
2019-04-01T06:18:13.668Z,90.42
2019-04-01T06:20:45.331Z,91.37
2019-04-01T06:23:17.297Z,79.37
2019-04-01T06:25:48.753Z,88.17
2019-04-01T06:28:20.602Z,91.57
2019-04-01T06:30:52.158Z,87.12
2019-04-01T06:33:23.819Z,90.92
2019-04-01T06:35:55.477Z,90.45
2019-04-01T06:38:27.234Z,90.47
2019-04-01T06:40:58.790Z,96.28
2019-04-01T06:43:30.447Z,83.92
2019-04-01T06:46:01.907Z,86.57
2019-04-01T06:48:33.662Z,79.20
2019-04-01T06:51:05.215Z,81.60
2019-04-01T06:53:36.871Z,81.40
2019-04-01T06:56:08.736Z,75.40
2019-04-01T06:58:40.395Z,88.97
2019-04-01T07:01:13.640Z,81.02
2019-04-01T07:03:45.454Z,74.27
2019-04-01T07:06:17.105Z,81.32
2019-04-01T07:08:49.010Z,77.12
2019-04-01T07:11:20.536Z,85.17
2019-04-01T07:13:52.285Z,79.17
2019-04-01T07:16:24.052Z,94.13
2019-04-01T07:18:55.905Z,96.17
2019-04-01T07:21:27.565Z,78.92
2019-04-01T07:23:59.346Z,90.15
2019-04-01T07:26:30.805Z,87.12
2019-04-01T07:29:02.438Z,78.47
2019-04-01T07:31:34.304Z,72.75
2019-04-01T07:34:05.953Z,81.53
2019-04-01T07:36:37.520Z,78.00
2019-04-01T07:39:09.270Z,75.55
2019-04-01T07:41:40.863Z,80.60
2019-04-01T07:44:12.589Z,85.30
2019-04-01T07:46:44.449Z,78.95
2019-04-01T07:49:15.905Z,81.55
2019-04-01T07:51:47.689Z,92.08
2019-04-01T07:54:19.322Z,97.80
2019-04-01T07:56:51.079Z,86.08
2019-04-01T07:59:22.855Z,87.33
2019-04-01T08:01:54.493Z,81.53
2019-04-01T08:04:26.148Z,70.22
2019-04-01T08:06:57.918Z,81.97
2019-04-01T08:09:29.878Z,76.70
2019-04-01T08:12:01.332Z,68.20
2019-04-01T08:14:32.828Z,63.73
2019-04-01T08:17:04.549Z,58.25
2019-04-01T08:19:36.231Z,62.88
2019-04-01T08:22:07.659Z,61.75
2019-04-01T08:24:39.211Z,51.45
2019-04-01T08:27:10.976Z,56.68
2019-04-01T08:29:42.833Z,57.40
2019-04-01T08:32:14.506Z,51.60
2019-04-01T08:37:17.504Z,46.33
2019-04-01T08:39:49.161Z,48.78
2019-04-01T08:42:21.024Z,44.40
2019-04-01T08:44:52.480Z,45.52
2019-04-01T08:47:24.238Z,44.20
2019-04-01T08:49:55.796Z,39.80
2019-04-01T08:52:27.555Z,49.33
2019-04-01T08:54:59.210Z,34.15
2019-04-01T08:57:31.074Z,37.35
2019-04-01T09:00:02.496Z,37.95
2019-04-01T09:02:35.922Z,37.42
2019-04-01T09:05:07.590Z,39.55
2019-04-01T09:07:39.253Z,38.60
2019-04-01T09:10:11.716Z,34.55
2019-04-01T09:12:43.168Z,32.17
2019-04-01T09:15:14.764Z,32.42
2019-04-01T09:17:46.688Z,31.33
2019-04-01T09:20:18.175Z,32.93
2019-04-01T09:22:49.905Z,34.90
2019-04-01T09:25:21.761Z,31.42
2019-04-01T09:27:53.419Z,35.92
2019-04-01T09:30:25.289Z,34.78
2019-04-01T09:32:57.042Z,33.48
2019-04-01T09:35:28.503Z,31.07
2019-04-01T09:38:00.364Z,26.68
2019-04-01T09:40:31.765Z,31.80
2019-04-01T09:43:03.598Z,35.92
2019-04-01T09:45:35.423Z,25.20
2019-04-01T09:48:07.207Z,59.33
2019-04-01T09:50:38.674Z,32.67
2019-04-01T09:53:10.302Z,29.63
2019-04-01T09:55:42.067Z,30.82
2019-04-01T09:58:13.522Z,24.82
2019-04-01T10:00:46.919Z,28.52
2019-04-01T10:03:19.708Z,30.90
2019-04-01T10:05:51.354Z,24.15
2019-04-01T10:08:23.021Z,22.52
2019-04-01T10:10:54.702Z,25.52
2019-04-01T10:13:26.438Z,30.52
2019-04-01T10:15:58.195Z,36.15
2019-04-01T10:18:30.999Z,27.40
2019-04-01T10:21:02.631Z,26.97
2019-04-01T10:23:34.487Z,22.13
2019-04-01T10:26:06.465Z,21.75
2019-04-01T10:28:37.829Z,26.00
2019-04-01T10:31:09.578Z,20.77
2019-04-01T10:33:41.288Z,23.85
2019-04-01T10:36:12.985Z,26.05
2019-04-01T10:38:46.657Z,22.27
2019-04-01T10:41:17.953Z,22.95
2019-04-01T10:43:49.503Z,26.07
2019-04-01T10:46:21.363Z,25.12
2019-04-01T10:48:53.004Z,25.05
2019-04-01T10:51:24.766Z,31.07
2019-04-01T10:53:56.788Z,31.75
2019-04-01T10:56:29.528Z,23.77
2019-04-01T10:59:01.174Z,25.97
2019-04-01T11:01:32.960Z,28.42
2019-04-01T11:04:04.637Z,20.02
2019-04-01T11:06:36.403Z,18.85
2019-04-01T11:09:10.633Z,19.62
2019-04-01T11:11:41.916Z,20.52
2019-04-01T11:14:13.619Z,21.60
2019-04-01T11:16:46.089Z,19.00
2019-04-01T11:19:17.629Z,25.12
2019-04-01T11:21:49.073Z,23.07
2019-04-01T11:24:20.733Z,24.05
2019-04-01T11:26:52.388Z,21.55
2019-04-01T11:29:25.771Z,20.62
2019-04-01T11:31:57.806Z,20.05
2019-04-01T11:34:29.453Z,18.85
2019-04-01T11:37:01.204Z,20.27
2019-04-01T11:39:33.075Z,21.52
2019-04-01T11:42:04.545Z,25.65
2019-04-01T11:44:36.002Z,25.02
2019-04-01T11:47:07.424Z,59.33
2019-04-01T11:49:39.192Z,20.12
2019-04-01T11:52:10.707Z,21.57
2019-04-01T11:54:42.570Z,20.90
2019-04-01T11:57:14.231Z,27.62
2019-04-01T11:59:45.913Z,23.92
2019-04-01T12:02:17.649Z,23.15
2019-04-01T12:04:49.406Z,23.32
2019-04-01T12:07:21.166Z,26.15
2019-04-01T12:09:52.935Z,20.20
2019-04-01T12:12:24.622Z,21.37
2019-04-01T12:14:56.137Z,18.60
2019-04-01T12:17:27.591Z,22.37
2019-04-01T12:19:59.453Z,23.30
2019-04-01T12:22:31.010Z,21.62
2019-04-01T12:25:02.774Z,23.12
2019-04-01T12:27:34.633Z,26.42
2019-04-01T12:30:06.908Z,30.20
2019-04-01T12:32:38.677Z,36.53
2019-04-01T12:35:10.425Z,32.78
2019-04-01T12:37:41.989Z,30.68
2019-04-01T12:40:13.738Z,28.27
2019-04-01T12:42:46.315Z,27.27
2019-04-01T12:45:18.084Z,26.20
2019-04-01T12:47:49.838Z,28.42
2019-04-01T12:50:21.313Z,33.70
2019-04-01T12:52:53.057Z,28.60
2019-04-01T12:55:24.614Z,46.05
2019-04-01T12:57:56.371Z,28.67
2019-04-01T13:00:29.370Z,35.70
2019-04-01T13:03:01.024Z,35.17
2019-04-01T13:05:32.773Z,30.08
2019-04-01T13:08:04.434Z,32.17
2019-04-01T13:10:36.913Z,31.05
2019-04-01T13:13:08.626Z,29.30
2019-04-01T13:15:40.435Z,29.25
2019-04-01T13:18:12.004Z,32.50
2019-04-01T13:20:43.640Z,28.47
2019-04-01T13:23:15.397Z,24.57
2019-04-01T13:25:47.169Z,36.77
2019-04-01T13:28:18.862Z,27.98
2019-04-01T13:30:50.681Z,29.42
2019-04-01T13:33:22.452Z,34.55
2019-04-01T13:35:54.207Z,31.52
2019-04-01T13:38:25.967Z,32.78
2019-04-01T13:40:57.632Z,27.67
2019-04-01T13:43:29.289Z,25.95
2019-04-01T13:46:01.142Z,30.95
2019-04-01T13:48:32.697Z,30.90
2019-04-01T13:51:04.479Z,29.00
2019-04-01T13:53:36.321Z,34.13
2019-04-01T13:56:10.261Z,26.52
2019-04-01T13:58:41.484Z,27.62
2019-04-01T14:01:14.157Z,27.67
2019-04-01T14:03:45.710Z,25.97
2019-04-01T14:06:17.471Z,30.48
2019-04-01T14:08:49.335Z,29.87
2019-04-01T14:11:21.201Z,26.00
2019-04-01T14:13:52.959Z,28.98
2019-04-01T14:16:24.455Z,24.70
2019-04-01T14:18:57.297Z,28.00
2019-04-01T14:21:29.087Z,31.37
2019-04-01T14:24:00.817Z,33.33
2019-04-01T14:26:32.579Z,27.48
2019-04-01T14:29:04.227Z,29.25
2019-04-01T14:31:35.869Z,30.57
2019-04-01T14:34:13.193Z,29.63
2019-04-01T14:36:41.260Z,27.65
2019-04-01T14:39:12.835Z,23.77
2019-04-01T14:41:44.577Z,32.42
2019-04-01T14:44:16.134Z,38.15
2019-04-01T14:46:47.894Z,25.68
2019-04-01T14:49:19.299Z,28.57
2019-04-01T14:51:51.002Z,24.82
2019-04-01T14:54:22.659Z,22.82
2019-04-01T14:56:54.312Z,25.27
2019-04-01T14:59:25.767Z,35.48
2019-04-01T15:01:57.528Z,59.33
2019-04-01T15:04:29.285Z,36.48
2019-04-01T15:07:01.152Z,27.00
2019-04-01T15:09:32.799Z,26.33
2019-04-01T15:12:04.570Z,26.37
2019-04-01T15:14:36.434Z,33.63
2019-04-01T15:17:09.215Z,31.05
2019-04-01T15:19:40.875Z,30.85
2019-04-01T15:22:12.737Z,26.97
2019-04-01T15:24:44.293Z,27.35
2019-04-01T15:27:15.742Z,24.92
2019-04-01T15:29:47.512Z,29.85
2019-04-01T15:32:18.983Z,27.95
2019-04-01T15:34:50.726Z,28.50
2019-04-01T15:37:23.177Z,25.43
2019-04-01T15:39:54.851Z,28.32
2019-04-01T15:42:26.407Z,24.57
2019-04-01T15:44:58.275Z,20.65
2019-04-01T15:47:29.635Z,19.50
2019-04-01T15:50:01.383Z,21.52
2019-04-01T15:52:33.721Z,22.13
2019-04-01T15:55:07.044Z,21.45
2019-04-01T15:57:38.706Z,20.85
2019-04-01T16:00:10.263Z,24.87
2019-04-01T16:02:43.661Z,20.27
2019-04-01T16:05:15.318Z,25.57
2019-04-01T16:07:46.768Z,21.57
2019-04-01T16:10:20.971Z,30.92
2019-04-01T16:12:52.546Z,28.12
2019-04-01T16:15:24.372Z,29.70
2019-04-01T16:17:56.167Z,26.82
2019-04-01T16:20:27.633Z,25.25
2019-04-01T16:22:59.277Z,29.20
2019-04-01T16:25:30.930Z,24.12
2019-04-01T16:28:02.591Z,26.80
2019-04-01T16:30:35.059Z,38.25
2019-04-01T16:33:06.858Z,22.35
2019-04-01T16:35:38.507Z,31.68
2019-04-01T16:38:10.359Z,27.85
2019-04-01T16:40:42.011Z,23.25
2019-04-01T16:43:13.563Z,25.15
2019-04-01T16:45:45.015Z,22.85
2019-04-01T16:48:16.716Z,26.50
2019-04-01T16:50:48.317Z,27.85
2019-04-01T16:53:19.905Z,26.35
2019-04-01T16:55:51.638Z,23.27
2019-04-01T16:58:23.205Z,29.65
2019-04-01T17:00:55.261Z,27.35
2019-04-01T17:03:26.934Z,26.25
2019-04-01T17:05:58.493Z,22.15
2019-04-01T17:08:30.146Z,23.62
2019-04-01T17:11:02.183Z,22.75
2019-04-01T17:13:34.176Z,26.45
2019-04-01T17:16:05.671Z,24.60
2019-04-01T17:18:37.621Z,29.37
2019-04-01T17:21:09.459Z,21.35
2019-04-01T17:23:42.077Z,23.05
2019-04-01T17:26:14.613Z,30.40
2019-04-01T17:28:46.376Z,19.48
2019-04-01T17:31:18.130Z,22.67
2019-04-01T17:33:50.000Z,20.92
2019-04-01T17:36:21.591Z,29.07
2019-04-01T17:38:53.448Z,24.35
2019-04-01T17:41:25.095Z,24.25
2019-04-01T17:43:57.131Z,19.98
2019-04-01T17:46:29.918Z,22.67
2019-04-01T17:49:02.087Z,26.00
2019-04-01T17:51:33.630Z,29.32
2019-04-01T17:54:05.300Z,23.57
2019-04-01T17:56:37.101Z,23.27
2019-04-01T17:59:08.638Z,24.40
2019-04-01T18:01:40.285Z,24.63
2019-04-01T18:04:12.040Z,22.75
2019-04-01T18:06:43.492Z,23.32
2019-04-01T18:09:15.075Z,31.77
2019-04-01T18:11:46.804Z,21.37
2019-04-01T18:14:19.203Z,28.35
2019-04-01T18:16:50.891Z,23.52
2019-04-01T18:19:22.494Z,20.65
2019-04-01T18:21:54.266Z,21.25
2019-04-01T18:24:26.030Z,20.40
2019-04-01T18:26:57.485Z,26.25
2019-04-01T18:29:29.237Z,23.30
2019-04-01T18:32:02.277Z,22.82
2019-04-01T18:34:33.778Z,23.65
2019-04-01T18:37:05.296Z,29.87
2019-04-01T18:39:47.405Z,23.38
2019-04-01T18:42:10.085Z,19.07
2019-04-01T18:44:41.732Z,17.27
2019-04-01T18:47:13.503Z,19.32
2019-04-01T18:49:45.967Z,17.82
2019-04-01T18:52:17.627Z,19.10
2019-04-01T18:54:49.196Z,22.77
2019-04-01T18:57:20.958Z,21.35
2019-04-01T18:59:52.706Z,23.27
2019-04-01T19:02:24.371Z,18.90
2019-04-01T19:04:56.225Z,23.70
2019-04-01T19:07:27.784Z,19.00
2019-04-01T19:10:05.900Z,21.77
2019-04-01T19:12:32.555Z,21.40
2019-04-01T19:15:10.129Z,21.27
2019-04-01T19:17:42.301Z,18.12
2019-04-01T19:20:14.433Z,20.43
2019-04-01T19:22:46.123Z,16.02
